createdAt,value
2023-04-15T00:01:10.089Z,101129.88
2023-04-15T00:03:36.935Z,101136.19
2023-04-15T00:06:03.810Z,101131.00
2023-04-15T00:08:30.920Z,101128.78
2023-04-15T00:11:02.722Z,101131.44
2023-04-15T00:13:29.617Z,101130.31
2023-04-15T00:15:56.140Z,101127.94
2023-04-15T00:18:23.378Z,101127.94
2023-04-15T00:20:49.912Z,101138.59
2023-04-15T00:23:16.498Z,101136.78
2023-04-15T00:25:43.064Z,101137.63
2023-04-15T00:28:10.001Z,101128.25
2023-04-15T00:30:36.547Z,101132.72
2023-04-15T00:33:03.874Z,101133.56
2023-04-15T00:35:32.761Z,101127.72
2023-04-15T00:37:59.857Z,101130.25
2023-04-15T00:40:26.445Z,101128.88
2023-04-15T00:42:53.216Z,101130.69
2023-04-15T00:45:19.986Z,101129.97
2023-04-15T00:47:46.876Z,101138.69
2023-04-15T00:50:14.200Z,101141.47
2023-04-15T00:52:41.568Z,101136.28
2023-04-15T00:55:09.416Z,101132.63
2023-04-15T00:57:36.909Z,101133.78
2023-04-15T01:00:05.742Z,101139.94
2023-04-15T01:02:33.509Z,101127.09
2023-04-15T01:05:00.619Z,101132.25
2023-04-15T01:07:27.180Z,101133.25
2023-04-15T01:09:53.952Z,101138.59
2023-04-15T01:12:20.815Z,101145.19
2023-04-15T01:14:47.437Z,101154.72
2023-04-15T01:17:14.556Z,101141.69
2023-04-15T01:19:41.549Z,101143.50
2023-04-15T01:22:08.496Z,101145.50
2023-04-15T01:24:36.972Z,101150.81
2023-04-15T01:27:05.387Z,101143.97
2023-04-15T01:29:38.425Z,101153.63
2023-04-15T01:32:05.814Z,101138.56
2023-04-15T01:34:35.011Z,101145.09
2023-04-15T01:37:02.235Z,101148.59
2023-04-15T01:39:28.763Z,101146.09
2023-04-15T01:41:55.280Z,101142.59
2023-04-15T01:44:21.868Z,101151.56
2023-04-15T01:46:48.515Z,101157.88
2023-04-15T01:49:15.149Z,101157.88
2023-04-15T01:51:41.751Z,101157.88
2023-04-15T01:54:08.421Z,101161.53
2023-04-15T01:56:35.157Z,101158.19
2023-04-15T01:59:03.834Z,101158.19
2023-04-15T02:01:30.558Z,101153.16
2023-04-15T02:03:57.303Z,101153.00
2023-04-15T02:06:24.499Z,101150.47
2023-04-15T02:08:51.084Z,101153.28
2023-04-15T02:11:18.270Z,101160.44
2023-04-15T02:13:44.816Z,101166.75
2023-04-15T02:16:18.723Z,101159.78
2023-04-15T02:18:47.003Z,101156.41
2023-04-15T02:21:14.136Z,101165.41
2023-04-15T02:23:41.037Z,101175.22
2023-04-15T02:26:08.159Z,101168.19
2023-04-15T02:28:34.891Z,101171.00
2023-04-15T02:31:06.479Z,101175.50
2023-04-15T02:33:33.387Z,101176.47
2023-04-15T02:36:00.001Z,101178.44
2023-04-15T02:38:26.575Z,101181.94
2023-04-15T02:40:53.404Z,101189.94
2023-04-15T02:43:19.951Z,101196.25
2023-04-15T02:45:47.397Z,101196.38
2023-04-15T02:48:13.987Z,101195.56
2023-04-15T02:50:41.080Z,101191.22
2023-04-15T02:53:07.748Z,101190.53
2023-04-15T02:55:34.512Z,101196.84
2023-04-15T02:58:01.256Z,101201.34
2023-04-15T03:00:28.320Z,101201.47
2023-04-15T03:03:03.643Z,101202.31
2023-04-15T03:05:30.608Z,101206.81
2023-04-15T03:07:57.305Z,101200.63
2023-04-15T03:10:23.887Z,101206.09
2023-04-15T03:12:50.829Z,101200.78
2023-04-15T03:15:17.431Z,101203.44
2023-04-15T03:17:44.253Z,101196.28
2023-04-15T03:20:11.345Z,101206.09
2023-04-15T03:22:37.977Z,101210.59
2023-04-15T03:25:04.914Z,101211.56
2023-04-15T03:27:32.028Z,101218.03
2023-04-15T03:29:58.598Z,101215.50
2023-04-15T03:32:25.139Z,101217.19
2023-04-15T03:34:51.653Z,101224.31
2023-04-15T03:37:18.194Z,101220.16
2023-04-15T03:39:44.798Z,101221.97
2023-04-15T03:42:11.303Z,101216.81
2023-04-15T03:44:38.425Z,101219.59
2023-04-15T03:47:05.053Z,101229.41
2023-04-15T03:49:31.648Z,101232.22
2023-04-15T03:51:58.193Z,101232.50
2023-04-15T03:54:24.974Z,101235.16
2023-04-15T03:56:51.580Z,101236.13
2023-04-15T03:59:18.154Z,101244.25
2023-04-15T04:01:44.741Z,101246.09
2023-04-15T04:04:11.640Z,101246.91
2023-04-15T04:06:38.248Z,101242.75
2023-04-15T04:09:04.861Z,101250.75
2023-04-15T04:11:31.819Z,101262.38
2023-04-15T04:13:58.613Z,101269.50
2023-04-15T04:16:25.524Z,101263.34
2023-04-15T04:18:52.164Z,101271.31
2023-04-15T04:21:18.848Z,101274.13
2023-04-15T04:23:45.597Z,101277.63
2023-04-15T04:26:12.211Z,101276.94
2023-04-15T04:28:40.618Z,101283.22
2023-04-15T04:31:07.893Z,101282.38
2023-04-15T04:33:34.549Z,101287.84
2023-04-15T04:36:01.486Z,101290.66
2023-04-15T04:38:28.089Z,101299.47
2023-04-15T04:40:54.675Z,101292.63
2023-04-15T04:43:21.378Z,101297.97
2023-04-15T04:45:47.922Z,101301.59
2023-04-15T04:48:14.560Z,101311.41
2023-04-15T04:50:41.185Z,101319.38
2023-04-15T04:53:07.874Z,101321.22
2023-04-15T04:55:36.988Z,101328.34
2023-04-15T04:58:03.526Z,101326.81
2023-04-15T05:00:30.404Z,101332.00
2023-04-15T05:02:57.102Z,101339.25
2023-04-15T05:05:23.802Z,101347.25
2023-04-15T05:07:50.752Z,101344.72
2023-04-15T05:10:18.289Z,101350.03
2023-04-15T05:12:45.027Z,101354.53
2023-04-15T05:15:12.177Z,101360.69
2023-04-15T05:17:38.850Z,101356.31
2023-04-15T05:20:05.982Z,101359.94
2023-04-15T05:22:32.680Z,101354.75
2023-04-15T05:24:59.379Z,101363.59
2023-04-15T05:27:26.065Z,101361.78
2023-04-15T05:29:52.669Z,101371.56
2023-04-15T05:32:19.412Z,101379.69
2023-04-15T05:34:46.346Z,101382.22
2023-04-15T05:37:13.004Z,101385.00
2023-04-15T05:39:39.620Z,101389.34
2023-04-15T05:42:06.259Z,101392.16
2023-04-15T05:44:33.003Z,101395.66
2023-04-15T05:46:59.704Z,101399.28
2023-04-15T05:49:26.285Z,101400.97
2023-04-15T05:51:52.956Z,101406.44
2023-04-15T05:54:20.213Z,101413.44
2023-04-15T05:56:47.023Z,101410.78
2023-04-15T05:59:13.572Z,101425.06
2023-04-15T06:01:40.299Z,101428.56
2023-04-15T06:04:07.130Z,101426.19
2023-04-15T06:06:34.674Z,101435.00
2023-04-15T06:09:01.379Z,101427.88
2023-04-15T06:11:28.279Z,101433.88
2023-04-15T06:13:54.902Z,101445.34
2023-04-15T06:16:21.989Z,101447.19
2023-04-15T06:18:48.779Z,101452.38
2023-04-15T06:21:15.967Z,101451.66
2023-04-15T06:23:42.706Z,101463.84
2023-04-15T06:26:09.269Z,101470.84
2023-04-15T06:28:35.951Z,101476.03
2023-04-15T06:31:02.579Z,101477.75
2023-04-15T06:33:29.357Z,101476.78
2023-04-15T06:35:55.912Z,101469.38
2023-04-15T06:38:22.520Z,101471.47
2023-04-15T06:40:49.151Z,101481.44
2023-04-15T06:43:15.716Z,101483.25
2023-04-15T06:45:42.355Z,101482.56
2023-04-15T06:48:08.924Z,101488.88
2023-04-15T06:50:35.815Z,101496.16
2023-04-15T06:53:03.125Z,101492.81
2023-04-15T06:55:29.822Z,101493.78
2023-04-15T06:57:56.393Z,101504.69
2023-04-15T07:00:23.365Z,101502.31
2023-04-15T07:02:50.038Z,101509.75
2023-04-15T07:05:17.024Z,101510.88
2023-04-15T07:07:43.604Z,101509.50
2023-04-15T07:10:11.960Z,101510.72
2023-04-15T07:12:38.796Z,101520.84
2023-04-15T07:15:06.730Z,101515.75
2023-04-15T07:17:33.423Z,101527.53
2023-04-15T07:20:00.040Z,101536.50
2023-04-15T07:22:26.716Z,101534.91
2023-04-15T07:24:53.271Z,101534.19
2023-04-15T07:27:19.802Z,101536.44
2023-04-15T07:29:46.691Z,101547.34
2023-04-15T07:32:13.249Z,101544.69
2023-04-15T07:34:39.868Z,101550.72
2023-04-15T07:37:06.578Z,101554.94
2023-04-15T07:39:33.212Z,101561.81
2023-04-15T07:41:59.896Z,101557.97
2023-04-15T07:44:27.632Z,101565.69
2023-04-15T07:46:54.211Z,101560.22
2023-04-15T07:49:21.517Z,101565.28
2023-04-15T07:51:49.147Z,101568.31
2023-04-15T07:54:16.318Z,101559.91
2023-04-15T07:56:43.050Z,101572.00
2023-04-15T07:59:10.432Z,101576.59
2023-04-15T08:01:37.732Z,101585.84
2023-04-15T08:04:04.667Z,101581.56
2023-04-15T08:06:31.379Z,101589.56
2023-04-15T08:08:58.090Z,101590.47
2023-04-15T08:11:24.982Z,101602.09
2023-04-15T08:13:52.540Z,101601.22
2023-04-15T08:16:24.748Z,101606.63
2023-04-15T08:18:53.001Z,101607.84
2023-04-15T08:21:20.176Z,101601.50
2023-04-15T08:23:49.697Z,101610.22
2023-04-15T08:26:17.495Z,101607.25
2023-04-15T08:28:45.854Z,101611.03
2023-04-15T08:31:14.939Z,101610.56
2023-04-15T08:33:41.777Z,101609.28
2023-04-15T08:36:08.508Z,101611.31
2023-04-15T08:38:35.277Z,101620.59
2023-04-15T08:41:19.113Z,101631.66
2023-04-15T08:43:57.840Z,101625.31
2023-04-15T08:46:24.954Z,101627.31
2023-04-15T08:48:52.476Z,101630.13
2023-04-15T08:51:19.694Z,101633.94
2023-04-15T08:53:47.517Z,101646.91
2023-04-15T08:56:15.974Z,101645.00
2023-04-15T08:58:44.888Z,101651.13
2023-04-15T09:01:14.606Z,101653.50
2023-04-15T09:03:42.208Z,101661.28
2023-04-15T09:06:09.104Z,101668.22
2023-04-15T09:08:35.944Z,101671.47
2023-04-15T09:11:03.296Z,101666.59
2023-04-15T09:13:30.299Z,101678.56
2023-04-15T09:15:58.464Z,101678.00
2023-04-15T09:18:33.308Z,101683.53
2023-04-15T09:21:14.193Z,101681.00
2023-04-15T09:23:54.102Z,101680.16
2023-04-15T09:26:30.738Z,101680.28
2023-04-15T09:29:14.881Z,101692.34
2023-04-15T09:31:42.828Z,101695.72
2023-04-15T09:34:09.653Z,101699.94
2023-04-15T09:36:53.175Z,101700.63
2023-04-15T09:39:20.199Z,101706.09
2023-04-15T09:41:46.777Z,101712.44
2023-04-15T09:44:26.950Z,101710.91
2023-04-15T09:46:53.642Z,101705.88
2023-04-15T09:49:21.035Z,101708.84
2023-04-15T09:52:01.304Z,101720.63
2023-04-15T09:54:35.476Z,101721.22
2023-04-15T09:57:06.540Z,101730.53
2023-04-15T09:59:33.128Z,101721.09
2023-04-15T10:02:00.494Z,101723.34
2023-04-15T10:04:28.662Z,101722.97
2023-04-15T10:06:56.216Z,101737.59
2023-04-15T10:09:22.930Z,101738.84
2023-04-15T10:11:50.345Z,101745.19
2023-04-15T10:14:18.712Z,101741.81
2023-04-15T10:16:49.129Z,101750.94
2023-04-15T10:19:19.208Z,101745.06
2023-04-15T10:21:46.611Z,101749.97
2023-04-15T10:24:13.459Z,101761.91
2023-04-15T10:26:40.885Z,101755.00
2023-04-15T10:29:08.870Z,101758.94
2023-04-15T10:31:38.368Z,101759.25
2023-04-15T10:34:06.781Z,101766.69
2023-04-15T10:36:33.941Z,101759.94
2023-04-15T10:39:00.492Z,101770.72
2023-04-15T10:41:31.261Z,101758.50
2023-04-15T10:44:03.591Z,101768.34
2023-04-15T10:46:38.645Z,101774.81
2023-04-15T10:49:24.248Z,101772.28
2023-04-15T10:51:58.301Z,101782.97
2023-04-15T10:54:24.783Z,101788.84
2023-04-15T10:57:12.274Z,101786.16
2023-04-15T11:00:04.619Z,101787.72
2023-04-15T11:02:42.289Z,101794.59
2023-04-15T11:05:10.569Z,101786.59
2023-04-15T11:07:41.765Z,101792.91
2023-04-15T11:10:14.468Z,101798.97
2023-04-15T11:12:41.997Z,101801.50
2023-04-15T11:15:27.510Z,101806.69
2023-04-15T11:17:54.197Z,101810.22
2023-04-15T11:20:21.249Z,101806.56
2023-04-15T11:23:08.348Z,101809.22
2023-04-15T11:25:41.825Z,101811.91
2023-04-15T11:28:08.505Z,101819.06
2023-04-15T11:30:37.446Z,101813.72
2023-04-15T11:33:06.175Z,101816.38
2023-04-15T11:35:33.439Z,101816.53
2023-04-15T11:38:08.689Z,101818.06
2023-04-15T11:40:35.860Z,101820.31
2023-04-15T11:43:12.396Z,101819.75
2023-04-15T11:45:56.392Z,101828.16
2023-04-15T11:48:28.535Z,101834.22
2023-04-15T11:50:56.538Z,101839.16
2023-04-15T11:53:24.366Z,101830.88
2023-04-15T11:55:53.064Z,101841.56
2023-04-15T11:58:22.532Z,101838.91
2023-04-15T12:00:57.562Z,101832.72
2023-04-15T12:03:36.468Z,101850.09
2023-04-15T12:06:23.633Z,101854.44
2023-04-15T12:08:56.149Z,101853.47
2023-04-15T12:11:42.133Z,101861.88
2023-04-15T12:14:10.002Z,101863.00
2023-04-15T12:16:49.492Z,101865.38
2023-04-15T12:19:26.078Z,101875.63
2023-04-15T12:21:59.975Z,101872.41
2023-04-15T12:24:27.039Z,101861.75
2023-04-15T12:26:57.693Z,101864.81
2023-04-15T12:29:29.189Z,101873.53
2023-04-15T12:32:06.629Z,101868.06
2023-04-15T12:34:35.949Z,101878.59
2023-04-15T12:37:04.690Z,101885.63
2023-04-15T12:39:34.970Z,101877.88
2023-04-15T12:42:01.736Z,101888.00
2023-04-15T12:44:28.919Z,101891.63
2023-04-15T12:46:55.954Z,101896.44
2023-04-15T12:49:24.370Z,101895.72
2023-04-15T12:51:53.936Z,101892.34
2023-04-15T12:54:21.588Z,101899.06
2023-04-15T12:56:49.873Z,101903.25
2023-04-15T12:59:18.538Z,101898.22
2023-04-15T13:01:46.598Z,101908.47
2023-04-15T13:04:13.418Z,101910.03
2023-04-15T13:06:40.136Z,101908.22
2023-04-15T13:09:06.950Z,101919.59
2023-04-15T13:11:34.174Z,101923.53
2023-04-15T13:14:02.332Z,101923.13
2023-04-15T13:16:29.292Z,101929.56
2023-04-15T13:18:56.013Z,101934.91
2023-04-15T13:21:22.619Z,101932.38
2023-04-15T13:23:53.013Z,101939.53
2023-04-15T13:26:19.696Z,101939.66
2023-04-15T13:28:46.668Z,101939.97
2023-04-15T13:31:13.374Z,101952.72
2023-04-15T13:33:40.008Z,101952.72
2023-04-15T13:36:06.950Z,101950.75
2023-04-15T13:38:33.471Z,101962.16
2023-04-15T13:41:00.034Z,101954.69
2023-04-15T13:43:27.111Z,101958.91
2023-04-15T13:45:53.643Z,101964.13
2023-04-15T13:48:20.328Z,101976.34
2023-04-15T13:50:46.873Z,101968.34
2023-04-15T13:53:13.398Z,101976.34
2023-04-15T13:55:41.788Z,101985.19
2023-04-15T13:58:09.135Z,101983.50
2023-04-15T14:00:35.847Z,101988.72
2023-04-15T14:03:02.651Z,101993.22
2023-04-15T14:05:29.420Z,101999.41
2023-04-15T14:07:55.985Z,102011.88
2023-04-15T14:10:22.668Z,101998.69
2023-04-15T14:12:49.194Z,102008.38
2023-04-15T14:15:15.985Z,102011.19
2023-04-15T14:17:42.915Z,102016.50
2023-04-15T14:20:10.162Z,102013.00
2023-04-15T14:22:36.770Z,102027.19
2023-04-15T14:25:04.081Z,102033.50
2023-04-15T14:27:30.607Z,102028.16
2023-04-15T14:29:58.726Z,102024.66
2023-04-15T14:32:26.400Z,102030.00
2023-04-15T14:34:52.979Z,102027.31
2023-04-15T14:37:19.769Z,102028.16
2023-04-15T14:39:46.315Z,102041.50
2023-04-15T14:42:12.848Z,102038.00
2023-04-15T14:44:39.418Z,102037.16
2023-04-15T14:47:06.129Z,102028.16
2023-04-15T14:49:32.727Z,102051.34
2023-04-15T14:51:59.271Z,102046.00
2023-04-15T14:54:25.793Z,102054.84
2023-04-15T14:56:52.345Z,102052.31
2023-04-15T14:59:18.944Z,102054.13
2023-04-15T15:01:45.626Z,102059.34
2023-04-15T15:04:13.048Z,102058.50
2023-04-15T15:06:40.612Z,102062.97
2023-04-15T15:09:07.692Z,102074.50
2023-04-15T15:11:34.269Z,102081.66
2023-04-15T15:14:00.927Z,102082.63
2023-04-15T15:16:28.267Z,102082.63
2023-04-15T15:18:55.469Z,102080.09
2023-04-15T15:21:22.055Z,102075.63
2023-04-15T15:23:48.640Z,102085.31
2023-04-15T15:26:15.852Z,102084.47
2023-04-15T15:28:42.484Z,102088.97
2023-04-15T15:31:09.376Z,102090.78
2023-04-15T15:33:36.134Z,102090.78
2023-04-15T15:36:04.006Z,102098.66
2023-04-15T15:38:30.573Z,102100.47
2023-04-15T15:40:57.141Z,102098.66
2023-04-15T15:43:23.756Z,102111.16
2023-04-15T15:45:52.260Z,102105.81
2023-04-15T15:48:18.862Z,102112.00
2023-04-15T15:50:45.777Z,102106.66
2023-04-15T15:53:17.868Z,102110.16
2023-04-15T15:55:44.385Z,102114.78
2023-04-15T15:58:11.229Z,102117.34
2023-04-15T16:00:37.831Z,102124.38
2023-04-15T16:03:07.101Z,102128.00
2023-04-15T16:05:34.433Z,102119.16
2023-04-15T16:08:01.141Z,102130.66
2023-04-15T16:10:28.063Z,102133.34
2023-04-15T16:12:55.007Z,102133.47
2023-04-15T16:15:23.048Z,102138.81
2023-04-15T16:17:49.644Z,102138.81
2023-04-15T16:20:16.694Z,102137.13
2023-04-15T16:22:43.474Z,102153.13
2023-04-15T16:25:10.507Z,102147.78
2023-04-15T16:27:54.150Z,102154.97
2023-04-15T16:30:24.976Z,102157.66
2023-04-15T16:32:51.897Z,102158.63
2023-04-15T16:35:18.533Z,102155.94
2023-04-15T16:37:45.115Z,102156.94
2023-04-15T16:40:12.126Z,102163.97
2023-04-15T16:42:38.745Z,102168.44
2023-04-15T16:45:05.833Z,102159.72
2023-04-15T16:47:32.430Z,102165.78
2023-04-15T16:49:59.086Z,102163.25
2023-04-15T16:52:25.745Z,102171.25
2023-04-15T16:54:52.272Z,102169.56
2023-04-15T16:57:18.840Z,102174.88
2023-04-15T16:59:45.425Z,102175.84
2023-04-15T17:02:13.690Z,102179.38
2023-04-15T17:04:41.602Z,102174.16
2023-04-15T17:07:11.025Z,102192.84
2023-04-15T17:09:40.552Z,102187.63
2023-04-15T17:12:07.485Z,102193.09
2023-04-15T17:14:35.103Z,102202.91
2023-04-15T17:17:01.850Z,102192.38
2023-04-15T17:19:28.462Z,102205.72
2023-04-15T17:21:55.274Z,102209.34
2023-04-15T17:24:21.941Z,102203.16
2023-04-15T17:26:48.766Z,102207.66
2023-04-15T17:29:15.414Z,102202.47
2023-04-15T17:31:42.183Z,102207.94
2023-04-15T17:34:09.601Z,102211.59
2023-04-15T17:36:37.502Z,102218.63
2023-04-15T17:39:04.567Z,102220.56
2023-04-15T17:41:31.361Z,102203.84
2023-04-15T17:43:58.719Z,102211.84
2023-04-15T17:46:25.471Z,102222.50
2023-04-15T17:48:52.058Z,102227.00
2023-04-15T17:51:18.674Z,102229.78
2023-04-15T17:53:45.315Z,102236.94
2023-04-15T17:56:11.888Z,102240.44
2023-04-15T17:58:39.332Z,102239.72
2023-04-15T18:01:06.389Z,102239.72
2023-04-15T18:03:33.159Z,102240.69
2023-04-15T18:06:01.288Z,102244.34
2023-04-15T18:08:28.820Z,102238.19
2023-04-15T18:10:55.571Z,102239.16
2023-04-15T18:13:22.130Z,102235.66
2023-04-15T18:15:49.567Z,102247.28
2023-04-15T18:18:16.188Z,102247.28
2023-04-15T18:20:42.851Z,102256.13
2023-04-15T18:23:09.405Z,102258.94
2023-04-15T18:25:38.075Z,102251.91
2023-04-15T18:28:05.405Z,102255.53
2023-04-15T18:30:32.065Z,102263.53
2023-04-15T18:32:58.665Z,102266.34
2023-04-15T18:35:25.314Z,102269.00
2023-04-15T18:37:52.962Z,102268.16
2023-04-15T18:40:19.595Z,102262.94
2023-04-15T18:42:46.224Z,102273.59
2023-04-15T18:45:12.952Z,102279.06
2023-04-15T18:47:39.655Z,102287.91
2023-04-15T18:50:07.615Z,102292.53
2023-04-15T18:52:34.272Z,102290.69
2023-04-15T18:55:03.174Z,102289.84
2023-04-15T18:57:35.452Z,102298.84
2023-04-15T19:00:04.441Z,102294.50
2023-04-15T19:02:31.161Z,102298.97
2023-04-15T19:04:57.833Z,102305.28
2023-04-15T19:07:24.948Z,102299.22
2023-04-15T19:09:51.569Z,102298.25
2023-04-15T19:12:18.108Z,102294.75
2023-04-15T19:14:44.772Z,102299.22
2023-04-15T19:17:11.402Z,102302.00
2023-04-15T19:19:38.570Z,102310.00
2023-04-15T19:22:05.785Z,102314.50
2023-04-15T19:24:33.315Z,102317.16
2023-04-15T19:27:00.213Z,102313.75
2023-04-15T19:29:28.602Z,102313.75
2023-04-15T19:31:55.295Z,102319.94
2023-04-15T19:34:21.896Z,102322.63
2023-04-15T19:36:48.592Z,102329.63
2023-04-15T19:39:15.489Z,102330.63
2023-04-15T19:41:43.968Z,102330.63
2023-04-15T19:44:13.034Z,102327.94
2023-04-15T19:46:40.706Z,102328.19
2023-04-15T19:49:07.583Z,102329.88
2023-04-15T19:51:34.390Z,102327.22
2023-04-15T19:54:01.018Z,102339.69
2023-04-15T19:56:27.720Z,102338.16
2023-04-15T19:58:54.939Z,102333.63
2023-04-15T20:01:22.368Z,102335.50
2023-04-15T20:03:49.390Z,102340.81
2023-04-15T20:06:16.116Z,102344.47
2023-04-15T20:08:42.708Z,102342.03
2023-04-15T20:11:10.167Z,102334.03
2023-04-15T20:13:37.008Z,102339.47
2023-04-15T20:16:05.912Z,102344.81
2023-04-15T20:18:32.470Z,102331.59
2023-04-15T20:20:59.174Z,102341.41
2023-04-15T20:23:25.778Z,102343.13
2023-04-15T20:25:52.481Z,102339.72
2023-04-15T20:28:19.346Z,102335.25
2023-04-15T20:30:47.199Z,102347.72
2023-04-15T20:33:14.443Z,102344.31
2023-04-15T20:35:41.153Z,102330.16
2023-04-15T20:38:07.702Z,102346.03
2023-04-15T20:40:34.247Z,102344.22
2023-04-15T20:43:00.920Z,102338.88
2023-04-15T20:45:27.552Z,102338.88
2023-04-15T20:47:55.220Z,102341.41
2023-04-15T20:50:21.806Z,102347.72
2023-04-15T20:52:48.344Z,102338.75
2023-04-15T20:55:14.891Z,102346.88
2023-04-15T20:57:41.655Z,102344.22
2023-04-15T21:00:10.906Z,102355.72
2023-04-15T21:02:38.186Z,102348.81
2023-04-15T21:05:05.375Z,102348.94
2023-04-15T21:07:31.938Z,102358.03
2023-04-15T21:09:58.510Z,102350.28
2023-04-15T21:12:25.105Z,102362.00
2023-04-15T21:14:52.499Z,102354.22
2023-04-15T21:17:19.242Z,102357.88
2023-04-15T21:19:45.861Z,102354.50
2023-04-15T21:22:12.435Z,102364.44
2023-04-15T21:24:39.021Z,102356.66
2023-04-15T21:27:05.882Z,102361.28
2023-04-15T21:29:32.450Z,102356.91
2023-04-15T21:31:58.982Z,102358.84
2023-04-15T21:34:25.636Z,102358.09
2023-04-15T21:36:52.249Z,102355.44
2023-04-15T21:39:18.819Z,102361.88
2023-04-15T21:41:45.394Z,102357.63
2023-04-15T21:44:14.425Z,102361.28
2023-04-15T21:46:41.603Z,102364.91
2023-04-15T21:49:12.358Z,102372.16
2023-04-15T21:51:38.941Z,102371.31
2023-04-15T21:54:05.698Z,102375.78
2023-04-15T21:56:32.326Z,102381.22
2023-04-15T21:58:58.908Z,102381.34
2023-04-15T22:01:26.607Z,102375.31
2023-04-15T22:03:53.501Z,102380.75
2023-04-15T22:06:20.459Z,102384.50
2023-04-15T22:08:55.966Z,102391.75
2023-04-15T22:11:28.456Z,102384.75
2023-04-15T22:13:56.731Z,102388.47
2023-04-15T22:16:25.545Z,102388.59
2023-04-15T22:18:52.286Z,102388.59
2023-04-15T22:21:18.953Z,102398.53
2023-04-15T22:23:49.105Z,102396.84
2023-04-15T22:26:15.860Z,102392.47
2023-04-15T22:28:42.458Z,102399.63
2023-04-15T22:31:09.239Z,102397.91
2023-04-15T22:33:36.022Z,102401.44
2023-04-15T22:36:02.558Z,102408.56
2023-04-15T22:38:29.184Z,102405.19
2023-04-15T22:40:55.835Z,102400.81
2023-04-15T22:43:22.551Z,102407.94
2023-04-15T22:45:50.584Z,102407.94
2023-04-15T22:48:18.337Z,102410.72
2023-04-15T22:50:45.029Z,102413.63
2023-04-15T22:53:11.628Z,102412.75
2023-04-15T22:55:38.317Z,102415.56
2023-04-15T22:58:05.038Z,102425.50
2023-04-15T23:00:31.564Z,102424.63
2023-04-15T23:02:58.271Z,102428.25
2023-04-15T23:05:25.017Z,102437.22
2023-04-15T23:07:51.628Z,102436.47
2023-04-15T23:10:18.245Z,102429.44
2023-04-15T23:12:44.775Z,102437.53
2023-04-15T23:15:11.720Z,102443.72
2023-04-15T23:17:38.318Z,102444.69
2023-04-15T23:20:05.712Z,102444.78
2023-04-15T23:22:32.277Z,102442.28
2023-04-15T23:24:58.790Z,102438.88
2023-04-15T23:27:25.415Z,102447.81
2023-04-15T23:29:51.929Z,102450.50
2023-04-15T23:32:18.505Z,102452.41
2023-04-15T23:34:45.144Z,102445.38
2023-04-15T23:37:11.666Z,102448.06
2023-04-15T23:39:38.231Z,102448.16
2023-04-15T23:42:04.817Z,102445.59
2023-04-15T23:44:31.360Z,102451.88
2023-04-15T23:46:57.961Z,102455.50
2023-04-15T23:49:24.524Z,102452.16
2023-04-15T23:51:51.113Z,102453.81
2023-04-15T23:54:17.698Z,102454.91
2023-04-15T23:56:44.276Z,102452.25
2023-04-15T23:59:11.059Z,102459.38
